createdAt,value
2023-03-20T00:00:36.123Z,35.87
2023-03-20T00:03:23.097Z,35.94
2023-03-20T00:06:16.742Z,35.94
2023-03-20T00:09:07.518Z,35.87
2023-03-20T00:11:58.416Z,35.97
2023-03-20T00:14:45.644Z,35.91
2023-03-20T00:17:32.730Z,35.97
2023-03-20T00:20:20.286Z,35.94
2023-03-20T00:23:07.303Z,35.96
2023-03-20T00:25:54.284Z,36.07
2023-03-20T00:28:44.147Z,35.83
2023-03-20T00:31:33.556Z,35.83
2023-03-20T00:34:23.801Z,35.84
2023-03-20T00:37:12.029Z,35.84
2023-03-20T00:39:59.030Z,35.76
2023-03-20T00:42:49.367Z,35.74
2023-03-20T00:45:37.034Z,35.73
2023-03-20T00:48:24.670Z,35.81
2023-03-20T00:51:11.700Z,35.67
2023-03-20T00:53:59.329Z,35.65
2023-03-20T00:56:56.380Z,35.66
2023-03-20T00:59:51.490Z,35.78
2023-03-20T01:02:38.910Z,35.77
2023-03-20T01:05:27.870Z,35.65
2023-03-20T01:08:16.516Z,35.60
2023-03-20T01:11:03.344Z,35.72
2023-03-20T01:13:52.417Z,35.72
2023-03-20T01:16:39.321Z,35.74
2023-03-20T01:19:27.349Z,35.76
2023-03-20T01:22:14.578Z,35.73
2023-03-20T01:25:02.985Z,35.69
2023-03-20T01:27:53.213Z,35.60
2023-03-20T01:30:40.533Z,35.71
2023-03-20T01:33:29.591Z,35.62
2023-03-20T01:36:23.159Z,35.74
2023-03-20T01:39:11.097Z,35.61
2023-03-20T01:41:58.668Z,35.61
2023-03-20T01:44:47.109Z,35.66
2023-03-20T01:47:34.807Z,35.68
2023-03-20T01:50:31.966Z,35.63
2023-03-20T01:53:28.888Z,35.70
2023-03-20T01:56:20.235Z,35.65
2023-03-20T01:59:19.743Z,35.66
2023-03-20T02:02:08.559Z,35.66
2023-03-20T02:05:01.499Z,35.68
2023-03-20T02:07:57.261Z,35.68
2023-03-20T02:10:46.729Z,35.60
2023-03-20T02:13:41.036Z,35.64
2023-03-20T02:16:28.051Z,35.60
2023-03-20T02:19:41.040Z,35.50
2023-03-20T02:22:48.485Z,35.61
2023-03-20T02:25:55.151Z,35.60
2023-03-20T02:29:09.088Z,35.66
2023-03-20T02:32:12.299Z,35.64
2023-03-20T02:35:36.076Z,35.63
2023-03-20T02:38:43.878Z,35.56
2023-03-20T02:41:46.801Z,35.56
2023-03-20T02:44:46.470Z,35.51
2023-03-20T02:47:46.178Z,35.55
2023-03-20T02:50:51.534Z,35.49
2023-03-20T02:53:57.371Z,35.39
2023-03-20T02:57:02.030Z,35.44
2023-03-20T03:00:10.129Z,35.41
2023-03-20T03:03:15.987Z,35.31
2023-03-20T03:06:10.987Z,35.29
2023-03-20T03:09:23.923Z,35.38
2023-03-20T03:12:16.764Z,35.39
2023-03-20T03:15:17.068Z,35.36
2023-03-20T03:18:09.170Z,35.37
2023-03-20T03:21:01.319Z,35.44
2023-03-20T03:23:49.443Z,35.53
2023-03-20T03:26:41.104Z,35.50
2023-03-20T03:29:34.456Z,35.31
2023-03-20T03:32:29.812Z,35.50
2023-03-20T03:35:20.827Z,35.47
2023-03-20T03:38:31.888Z,35.38
2023-03-20T03:41:54.138Z,35.40
2023-03-20T03:44:56.100Z,35.55
2023-03-20T03:47:51.211Z,35.56
2023-03-20T03:51:00.761Z,35.60
2023-03-20T03:53:58.105Z,35.62
2023-03-20T03:56:49.138Z,35.64
2023-03-20T03:59:44.735Z,35.68
2023-03-20T04:02:33.092Z,35.91
2023-03-20T04:05:21.716Z,35.88
2023-03-20T04:08:09.392Z,35.81
2023-03-20T04:10:56.415Z,35.77
2023-03-20T04:13:43.304Z,35.83
2023-03-20T04:16:31.166Z,35.80
2023-03-20T04:19:18.591Z,35.85
2023-03-20T04:22:06.200Z,35.91
2023-03-20T04:24:53.113Z,35.79
2023-03-20T04:27:40.642Z,35.83
2023-03-20T04:30:33.190Z,35.77
2023-03-20T04:33:30.134Z,35.89
2023-03-20T04:36:24.825Z,35.91
2023-03-20T04:39:12.965Z,36.04
2023-03-20T04:41:59.891Z,36.17
2023-03-20T04:44:48.131Z,36.33
2023-03-20T04:47:35.037Z,37.14
2023-03-20T04:50:21.716Z,37.95
2023-03-20T04:53:09.994Z,38.16
2023-03-20T04:55:56.915Z,38.18
2023-03-20T04:58:44.031Z,38.29
2023-03-20T05:01:31.498Z,38.35
2023-03-20T05:04:18.804Z,38.22
2023-03-20T05:07:06.119Z,38.09
2023-03-20T05:10:01.521Z,37.98
2023-03-20T05:12:50.793Z,37.77
2023-03-20T05:15:56.947Z,37.58
2023-03-20T05:19:04.238Z,37.50
2023-03-20T05:22:14.286Z,37.34
2023-03-20T05:25:01.813Z,37.18
2023-03-20T05:28:14.628Z,37.06
2023-03-20T05:31:22.706Z,36.98
2023-03-20T05:34:29.633Z,36.74
2023-03-20T05:37:27.290Z,36.64
2023-03-20T05:40:33.151Z,36.54
2023-03-20T05:43:38.697Z,37.84
2023-03-20T05:46:42.202Z,39.31
2023-03-20T05:49:55.754Z,39.85
2023-03-20T05:52:55.977Z,39.54
2023-03-20T05:55:59.472Z,39.36
2023-03-20T05:59:21.934Z,39.00
2023-03-20T06:02:31.907Z,39.23
2023-03-20T06:05:23.601Z,39.22
2023-03-20T06:08:11.126Z,39.03
2023-03-20T06:10:58.459Z,38.63
2023-03-20T06:13:45.927Z,38.31
2023-03-20T06:16:34.122Z,37.96
2023-03-20T06:19:22.074Z,37.81
2023-03-20T06:22:09.196Z,37.43
2023-03-20T06:24:57.530Z,37.18
2023-03-20T06:27:50.393Z,36.91
2023-03-20T06:30:38.208Z,36.69
2023-03-20T06:33:26.462Z,36.61
2023-03-20T06:36:20.840Z,36.29
2023-03-20T06:39:10.113Z,36.24
2023-03-20T06:41:57.545Z,36.10
2023-03-20T06:44:46.084Z,36.03
2023-03-20T06:47:35.156Z,35.89
2023-03-20T06:50:24.631Z,35.74
2023-03-20T06:53:12.460Z,35.64
2023-03-20T06:56:13.313Z,35.55
2023-03-20T06:59:01.142Z,35.52
2023-03-20T07:01:48.402Z,35.53
2023-03-20T07:04:36.476Z,35.47
2023-03-20T07:07:23.724Z,35.46
2023-03-20T07:10:12.558Z,35.35
2023-03-20T07:13:01.335Z,35.35
2023-03-20T07:16:03.397Z,35.29
2023-03-20T07:18:55.336Z,35.22
2023-03-20T07:21:42.560Z,35.14
2023-03-20T07:24:30.829Z,35.20
2023-03-20T07:27:18.539Z,35.10
2023-03-20T07:30:07.066Z,35.03
2023-03-20T07:32:54.401Z,34.95
2023-03-20T07:35:42.172Z,34.92
2023-03-20T07:38:29.123Z,34.86
2023-03-20T07:41:25.081Z,34.87
2023-03-20T07:44:19.789Z,34.66
2023-03-20T07:47:13.170Z,34.59
2023-03-20T07:50:00.059Z,34.54
2023-03-20T07:52:49.371Z,34.44
2023-03-20T07:55:36.254Z,34.54
2023-03-20T07:58:23.199Z,34.33
2023-03-20T08:01:10.220Z,34.37
2023-03-20T08:03:57.360Z,34.30
2023-03-20T08:06:44.816Z,34.41
2023-03-20T08:09:31.731Z,34.35
2023-03-20T08:12:19.158Z,34.32
2023-03-20T08:15:06.994Z,34.24
2023-03-20T08:17:54.223Z,34.24
2023-03-20T08:20:41.340Z,34.17
2023-03-20T08:23:28.457Z,34.23
2023-03-20T08:26:15.574Z,34.24
2023-03-20T08:29:02.741Z,34.21
2023-03-20T08:31:49.809Z,34.10
2023-03-20T08:34:37.048Z,34.17
2023-03-20T08:37:23.950Z,34.19
2023-03-20T08:40:11.914Z,34.13
2023-03-20T08:42:59.359Z,34.14
2023-03-20T08:45:47.116Z,34.24
2023-03-20T08:48:34.051Z,34.18
2023-03-20T08:51:21.486Z,34.20
2023-03-20T08:54:08.792Z,34.16
2023-03-20T08:56:56.014Z,34.13
2023-03-20T08:59:42.842Z,34.13
2023-03-20T09:02:30.388Z,34.14
2023-03-20T09:05:17.478Z,33.98
2023-03-20T09:08:04.293Z,33.87
2023-03-20T09:10:53.456Z,33.91
2023-03-20T09:13:40.729Z,33.95
2023-03-20T09:16:28.265Z,33.92
2023-03-20T09:19:16.235Z,33.74
2023-03-20T09:22:03.061Z,33.89
2023-03-20T09:24:50.596Z,33.92
2023-03-20T09:27:37.883Z,33.69
2023-03-20T09:30:25.742Z,33.75
2023-03-20T09:33:15.035Z,33.80
2023-03-20T09:36:02.111Z,33.88
2023-03-20T09:38:49.350Z,33.82
2023-03-20T09:41:49.241Z,33.72
2023-03-20T09:44:54.813Z,33.76
2023-03-20T09:47:51.672Z,33.75
2023-03-20T09:50:46.780Z,33.74
2023-03-20T09:53:48.558Z,33.82
2023-03-20T09:56:35.961Z,33.79
2023-03-20T09:59:26.070Z,33.78
2023-03-20T10:02:24.553Z,33.71
2023-03-20T10:05:25.047Z,33.65
2023-03-20T10:08:17.229Z,33.63
2023-03-20T10:11:08.933Z,33.64
2023-03-20T10:14:18.871Z,33.69
2023-03-20T10:17:14.286Z,33.64
2023-03-20T10:20:11.313Z,33.62
2023-03-20T10:23:06.617Z,33.64
2023-03-20T10:25:58.756Z,33.49
2023-03-20T10:28:57.702Z,33.52
2023-03-20T10:31:52.731Z,33.47
2023-03-20T10:34:49.264Z,33.51
2023-03-20T10:38:06.444Z,33.48
2023-03-20T10:40:57.942Z,33.47
2023-03-20T10:43:47.607Z,33.38
2023-03-20T10:46:42.672Z,33.40
2023-03-20T10:49:35.433Z,33.40
2023-03-20T10:52:38.187Z,33.33
2023-03-20T10:55:31.063Z,33.34
2023-03-20T10:58:25.851Z,33.39
2023-03-20T11:01:12.875Z,33.42
2023-03-20T11:03:59.808Z,33.25
2023-03-20T11:06:59.703Z,33.32
2023-03-20T11:09:46.607Z,33.31
2023-03-20T11:12:40.597Z,33.26
2023-03-20T11:15:34.760Z,33.19
2023-03-20T11:18:26.317Z,33.24
2023-03-20T11:21:19.704Z,33.17
2023-03-20T11:24:36.175Z,33.19
2023-03-20T11:27:28.512Z,33.19
2023-03-20T11:30:18.453Z,33.23
2023-03-20T11:33:05.664Z,33.14
2023-03-20T11:35:58.108Z,33.07
2023-03-20T11:38:46.216Z,33.03
2023-03-20T11:41:33.511Z,33.15
2023-03-20T11:44:29.212Z,33.18
2023-03-20T11:47:28.533Z,33.09
2023-03-20T11:50:31.651Z,33.04
2023-03-20T11:53:26.325Z,33.00
2023-03-20T11:56:25.754Z,32.91
2023-03-20T11:59:19.400Z,32.91
2023-03-20T12:02:22.033Z,32.88
2023-03-20T12:05:28.462Z,32.84
2023-03-20T12:08:23.975Z,32.90
2023-03-20T12:11:23.590Z,32.88
2023-03-20T12:14:38.418Z,32.70
2023-03-20T12:17:47.404Z,32.82
2023-03-20T12:20:37.406Z,32.82
2023-03-20T12:23:35.860Z,32.74
2023-03-20T12:26:56.047Z,32.68
2023-03-20T12:29:50.224Z,32.59
2023-03-20T12:32:54.788Z,32.70
2023-03-20T12:35:47.467Z,32.61
2023-03-20T12:38:34.822Z,32.63
2023-03-20T12:41:59.512Z,32.57
2023-03-20T12:44:46.449Z,32.62
2023-03-20T12:47:45.404Z,32.59
2023-03-20T12:50:38.638Z,32.59
2023-03-20T12:53:36.477Z,32.55
2023-03-20T12:56:29.288Z,32.58
2023-03-20T12:59:15.995Z,32.51
2023-03-20T13:02:41.407Z,32.43
2023-03-20T13:05:46.073Z,32.47
2023-03-20T13:08:45.795Z,32.52
2023-03-20T13:11:46.012Z,32.44
2023-03-20T13:15:03.857Z,32.39
2023-03-20T13:18:28.563Z,32.46
2023-03-20T13:21:38.273Z,32.43
2023-03-20T13:24:28.396Z,32.34
2023-03-20T13:27:29.537Z,32.37
2023-03-20T13:30:23.914Z,32.35
2023-03-20T13:33:36.350Z,32.32
2023-03-20T13:36:46.811Z,32.25
2023-03-20T13:39:42.316Z,32.26
2023-03-20T13:42:34.909Z,32.31
2023-03-20T13:45:47.683Z,32.28
2023-03-20T13:48:44.138Z,32.31
2023-03-20T13:51:39.450Z,32.23
2023-03-20T13:54:53.821Z,32.24
2023-03-20T13:58:17.572Z,32.18
2023-03-20T14:01:32.361Z,32.12
2023-03-20T14:04:23.820Z,32.04
2023-03-20T14:07:37.619Z,32.09
2023-03-20T14:10:25.028Z,32.14
2023-03-20T14:13:17.675Z,32.16
2023-03-20T14:16:09.828Z,32.10
2023-03-20T14:19:24.978Z,32.05
2023-03-20T14:22:18.140Z,32.08
2023-03-20T14:25:26.160Z,32.01
2023-03-20T14:28:15.491Z,31.86
2023-03-20T14:31:20.771Z,31.90
2023-03-20T14:34:12.962Z,31.79
2023-03-20T14:37:01.043Z,31.74
2023-03-20T14:40:02.320Z,31.75
2023-03-20T14:43:01.573Z,31.77
2023-03-20T14:46:00.592Z,31.75
2023-03-20T14:48:53.400Z,31.80
2023-03-20T14:51:46.600Z,31.76
2023-03-20T14:54:33.319Z,31.74
2023-03-20T14:57:55.499Z,31.67
2023-03-20T15:00:47.390Z,31.67
2023-03-20T15:03:36.436Z,31.64
2023-03-20T15:06:27.666Z,31.59
2023-03-20T15:09:15.777Z,31.58
2023-03-20T15:12:04.703Z,31.54
2023-03-20T15:15:20.944Z,31.62
2023-03-20T15:18:13.844Z,31.79
2023-03-20T15:21:01.248Z,31.86
2023-03-20T15:23:48.849Z,31.86
2023-03-20T15:26:36.207Z,31.86
2023-03-20T15:29:23.629Z,31.88
2023-03-20T15:32:14.981Z,31.85
2023-03-20T15:35:05.826Z,31.79
2023-03-20T15:37:55.098Z,31.76
2023-03-20T15:40:50.731Z,31.74
2023-03-20T15:43:38.356Z,31.69
2023-03-20T15:46:27.208Z,31.70
2023-03-20T15:49:19.048Z,31.58
2023-03-20T15:52:07.979Z,31.88
2023-03-20T15:54:57.760Z,32.34
2023-03-20T15:57:47.298Z,32.61
2023-03-20T16:00:40.032Z,32.85
2023-03-20T16:03:28.332Z,33.16
2023-03-20T16:06:20.073Z,33.55
2023-03-20T16:09:08.243Z,33.76
2023-03-20T16:11:58.571Z,33.87
2023-03-20T16:14:48.604Z,33.88
2023-03-20T16:17:36.356Z,33.71
2023-03-20T16:20:26.211Z,33.63
2023-03-20T16:23:25.618Z,33.59
2023-03-20T16:26:17.484Z,33.54
2023-03-20T16:29:05.817Z,33.52
2023-03-20T16:32:03.382Z,33.54
2023-03-20T16:34:51.632Z,33.66
2023-03-20T16:37:43.684Z,33.66
2023-03-20T16:40:37.683Z,33.72
2023-03-20T16:43:31.552Z,33.78
2023-03-20T16:46:26.491Z,33.81
2023-03-20T16:49:34.921Z,33.75
2023-03-20T16:52:30.795Z,33.70
2023-03-20T16:55:27.890Z,33.67
2023-03-20T16:58:20.869Z,33.55
2023-03-20T17:01:16.947Z,33.54
2023-03-20T17:04:29.071Z,33.49
2023-03-20T17:07:18.696Z,33.38
2023-03-20T17:10:18.262Z,33.36
2023-03-20T17:13:07.760Z,33.15
2023-03-20T17:15:55.806Z,33.21
2023-03-20T17:18:46.105Z,33.22
2023-03-20T17:21:34.093Z,32.96
2023-03-20T17:24:20.740Z,33.04
2023-03-20T17:27:11.968Z,33.21
2023-03-20T17:29:58.666Z,33.13
2023-03-20T17:32:46.211Z,33.15
2023-03-20T17:35:33.458Z,33.31
2023-03-20T17:38:22.304Z,33.53
2023-03-20T17:41:14.384Z,33.71
2023-03-20T17:44:01.638Z,34.07
2023-03-20T17:46:57.669Z,34.11
2023-03-20T17:49:46.276Z,33.93
2023-03-20T17:52:33.547Z,33.76
2023-03-20T17:55:20.754Z,33.65
2023-03-20T17:58:15.831Z,33.63
2023-03-20T18:01:03.059Z,33.54
2023-03-20T18:03:50.205Z,33.44
2023-03-20T18:06:38.342Z,33.36
2023-03-20T18:09:26.063Z,33.31
2023-03-20T18:12:16.724Z,33.19
2023-03-20T18:15:04.411Z,33.20
2023-03-20T18:17:51.192Z,33.10
2023-03-20T18:20:41.195Z,33.12
2023-03-20T18:23:27.923Z,33.19
2023-03-20T18:26:26.512Z,33.11
2023-03-20T18:29:13.615Z,33.11
2023-03-20T18:32:01.158Z,32.98
2023-03-20T18:34:48.064Z,33.06
2023-03-20T18:37:34.770Z,32.92
2023-03-20T18:40:26.120Z,32.93
2023-03-20T18:43:13.522Z,32.91
2023-03-20T18:46:00.005Z,33.02
2023-03-20T18:48:47.959Z,32.85
2023-03-20T18:51:34.569Z,32.91
2023-03-20T18:54:21.325Z,32.95
2023-03-20T18:57:13.688Z,32.87
2023-03-20T19:00:00.821Z,32.88
2023-03-20T19:02:49.792Z,32.92
2023-03-20T19:05:37.014Z,32.79
2023-03-20T19:08:24.329Z,32.85
2023-03-20T19:11:15.403Z,32.92
2023-03-20T19:14:02.458Z,32.95
2023-03-20T19:16:51.116Z,32.89
2023-03-20T19:19:37.820Z,32.96
2023-03-20T19:22:29.508Z,32.95
2023-03-20T19:25:17.407Z,32.92
2023-03-20T19:28:05.563Z,32.83
2023-03-20T19:30:54.048Z,32.76
2023-03-20T19:33:41.311Z,32.77
2023-03-20T19:36:31.675Z,32.72
2023-03-20T19:39:18.674Z,32.75
2023-03-20T19:42:30.388Z,32.79
2023-03-20T19:45:13.345Z,32.66
2023-03-20T19:48:01.086Z,32.64
2023-03-20T19:50:51.121Z,32.64
2023-03-20T19:53:39.216Z,32.68
2023-03-20T19:56:25.795Z,32.60
2023-03-20T19:59:16.091Z,32.64
2023-03-20T20:02:03.901Z,32.55
2023-03-20T20:04:51.049Z,32.48
2023-03-20T20:10:53.090Z,32.55
2023-03-20T20:14:01.899Z,32.64
2023-03-20T20:16:52.583Z,32.53
2023-03-20T20:19:40.471Z,32.61
2023-03-20T20:22:28.493Z,32.58
2023-03-20T20:25:17.801Z,32.63
2023-03-20T20:28:05.383Z,32.52
2023-03-20T20:30:55.859Z,32.53
2023-03-20T20:33:43.101Z,32.62
2023-03-20T20:39:37.498Z,32.59
2023-03-20T20:42:24.674Z,32.57
2023-03-20T20:45:12.110Z,32.64
2023-03-20T20:47:59.525Z,32.64
2023-03-20T20:50:46.621Z,32.56
2023-03-20T20:53:33.271Z,32.63
2023-03-20T20:56:20.580Z,32.72
2023-03-20T20:59:07.695Z,32.63
2023-03-20T21:01:54.315Z,32.62
2023-03-20T21:04:43.059Z,32.60
2023-03-20T21:07:30.984Z,32.67
2023-03-20T21:10:20.372Z,32.72
2023-03-20T21:13:08.431Z,32.76
2023-03-20T21:16:00.470Z,32.77
2023-03-20T21:18:47.725Z,32.83
2023-03-20T21:21:35.747Z,32.67
2023-03-20T21:24:32.373Z,32.73
2023-03-20T21:27:21.829Z,32.70
2023-03-20T21:30:09.749Z,32.59
2023-03-20T21:32:56.426Z,32.61
2023-03-20T21:35:47.392Z,32.73
2023-03-20T21:41:41.988Z,32.68
2023-03-20T21:48:28.587Z,32.64
2023-03-20T21:51:15.124Z,32.73
2023-03-20T21:54:51.276Z,32.89
2023-03-20T21:57:39.669Z,32.78
2023-03-20T22:03:28.862Z,32.73
2023-03-20T22:07:18.592Z,32.81
2023-03-20T22:10:10.966Z,32.76
2023-03-20T22:13:20.769Z,32.77
2023-03-20T22:22:43.351Z,33.05
2023-03-20T22:35:22.430Z,33.31
2023-03-20T22:41:37.827Z,33.18
2023-03-20T22:46:56.264Z,33.19
2023-03-20T22:49:43.380Z,33.15
2023-03-20T22:52:45.463Z,33.15
2023-03-20T22:55:35.654Z,33.14
2023-03-20T22:58:22.447Z,33.10
2023-03-20T23:01:11.453Z,33.13
2023-03-20T23:03:58.425Z,33.16
2023-03-20T23:06:45.958Z,33.04
2023-03-20T23:09:32.974Z,33.16
2023-03-20T23:12:20.087Z,33.15
2023-03-20T23:15:07.944Z,33.20
2023-03-20T23:17:54.734Z,33.18
2023-03-20T23:20:41.760Z,33.10
2023-03-20T23:23:30.306Z,33.17
2023-03-20T23:26:21.110Z,33.12
2023-03-20T23:29:07.861Z,33.15
2023-03-20T23:31:54.957Z,33.21
2023-03-20T23:34:41.860Z,33.18
2023-03-20T23:37:28.874Z,33.16
2023-03-20T23:40:15.886Z,33.14
2023-03-20T23:43:02.495Z,33.18
2023-03-20T23:45:50.125Z,33.15
2023-03-20T23:48:37.036Z,33.23
2023-03-20T23:51:23.919Z,33.23
2023-03-20T23:54:11.685Z,33.20
2023-03-20T23:56:58.813Z,33.21
2023-03-20T23:59:45.831Z,33.22
